createdAt,value
2017-10-26T00:01:25.589Z,10.70
2017-10-26T00:03:28.242Z,10.60
2017-10-26T00:05:31.017Z,10.60
2017-10-26T00:07:33.716Z,10.70
2017-10-26T00:09:36.479Z,10.70
2017-10-26T00:11:39.159Z,10.70
2017-10-26T00:13:41.836Z,10.70
2017-10-26T00:15:44.499Z,10.60
2017-10-26T00:17:47.196Z,10.60
2017-10-26T00:19:49.874Z,10.60
2017-10-26T00:21:52.525Z,10.50
2017-10-26T00:23:55.973Z,10.60
2017-10-26T00:25:58.775Z,10.60
2017-10-26T00:28:01.554Z,10.60
2017-10-26T00:30:04.262Z,10.60
2017-10-26T00:32:06.927Z,10.60
2017-10-26T00:34:09.586Z,10.70
2017-10-26T00:36:12.339Z,10.60
2017-10-26T00:38:15.001Z,10.60
2017-10-26T00:40:17.689Z,10.60
2017-10-26T00:42:20.434Z,10.70
2017-10-26T00:44:23.094Z,10.80
2017-10-26T00:46:25.811Z,10.70
2017-10-26T00:48:28.462Z,10.70
2017-10-26T00:50:31.119Z,10.60
2017-10-26T00:52:33.789Z,10.50
2017-10-26T00:54:37.223Z,10.30
2017-10-26T00:56:39.917Z,10.30
2017-10-26T00:58:42.608Z,10.30
2017-10-26T01:00:45.466Z,10.30
2017-10-26T01:02:48.191Z,10.20
2017-10-26T01:04:51.639Z,10.10
2017-10-26T01:06:54.340Z,10.10
2017-10-26T01:08:57.066Z,10.00
2017-10-26T01:10:59.727Z,10.00
2017-10-26T01:13:02.459Z,10.00
2017-10-26T01:15:05.117Z,10.10
2017-10-26T01:17:07.817Z,10.00
2017-10-26T01:19:10.680Z,10.10
2017-10-26T01:21:13.382Z,10.00
2017-10-26T01:23:16.084Z,10.10
2017-10-26T01:25:19.603Z,10.20
2017-10-26T01:27:22.337Z,10.20
2017-10-26T01:29:25.820Z,10.40
2017-10-26T01:31:28.545Z,10.40
2017-10-26T01:33:31.270Z,10.60
2017-10-26T01:35:33.955Z,10.70
2017-10-26T01:37:36.670Z,10.70
2017-10-26T01:39:39.357Z,10.80
2017-10-26T01:41:42.064Z,10.70
2017-10-26T01:43:44.857Z,10.80
2017-10-26T01:45:47.505Z,10.80
2017-10-26T01:47:50.207Z,10.80
2017-10-26T01:49:52.888Z,10.90
2017-10-26T01:51:55.589Z,10.90
2017-10-26T01:53:59.055Z,11.00
2017-10-26T01:56:01.793Z,11.00
2017-10-26T01:58:04.538Z,11.10
2017-10-26T02:00:07.977Z,11.30
2017-10-26T02:02:10.664Z,11.30
2017-10-26T02:04:13.369Z,11.50
2017-10-26T02:06:16.081Z,11.50
2017-10-26T02:08:18.765Z,11.60
2017-10-26T02:10:21.558Z,11.70
2017-10-26T02:12:24.327Z,11.80
2017-10-26T02:14:27.036Z,11.80
2017-10-26T02:16:29.765Z,11.90
2017-10-26T02:18:32.464Z,11.90
2017-10-26T02:20:35.164Z,11.90
2017-10-26T02:22:37.925Z,11.80
2017-10-26T02:24:40.630Z,11.90
2017-10-26T02:26:43.366Z,11.90
2017-10-26T02:28:58.032Z,11.90
2017-10-26T02:31:12.551Z,11.90
2017-10-26T02:33:16.007Z,11.90
2017-10-26T02:35:18.731Z,11.90
2017-10-26T02:37:21.420Z,11.90
2017-10-26T02:39:24.235Z,11.80
2017-10-26T02:41:26.945Z,11.60
2017-10-26T02:43:29.604Z,11.40
2017-10-26T02:45:33.787Z,11.00
2017-10-26T02:47:36.494Z,11.00
2017-10-26T02:49:39.160Z,11.00
2017-10-26T02:51:41.902Z,11.10
2017-10-26T02:53:44.682Z,11.30
2017-10-26T02:55:47.371Z,11.30
2017-10-26T02:57:50.070Z,11.50
2017-10-26T02:59:52.883Z,11.70
2017-10-26T03:01:56.396Z,12.00
2017-10-26T03:03:59.122Z,12.00
2017-10-26T03:06:01.859Z,12.00
2017-10-26T03:08:05.569Z,12.10
2017-10-26T03:10:11.299Z,12.10
2017-10-26T03:12:14.056Z,12.20
2017-10-26T03:14:16.871Z,12.20
2017-10-26T03:16:20.295Z,12.30
2017-10-26T03:18:23.016Z,12.20
2017-10-26T03:20:34.326Z,12.20
2017-10-26T03:22:37.903Z,12.20
2017-10-26T03:24:40.905Z,12.30
2017-10-26T03:26:45.410Z,12.30
2017-10-26T03:28:49.978Z,12.40
2017-10-26T03:30:53.106Z,12.40
2017-10-26T03:32:55.798Z,12.40
2017-10-26T03:34:58.606Z,12.50
2017-10-26T03:37:01.303Z,12.50
2017-10-26T03:39:03.993Z,12.50
2017-10-26T03:41:07.175Z,12.50
2017-10-26T03:43:09.875Z,12.50
2017-10-26T03:45:12.516Z,12.60
2017-10-26T03:47:15.394Z,12.50
2017-10-26T03:49:18.073Z,12.60
2017-10-26T03:51:20.741Z,12.60
2017-10-26T03:53:23.623Z,12.60
2017-10-26T03:55:26.282Z,12.60
2017-10-26T03:57:28.973Z,12.50
2017-10-26T03:59:31.631Z,12.50
2017-10-26T04:01:34.296Z,12.60
2017-10-26T04:03:37.852Z,12.60
2017-10-26T04:05:40.531Z,12.60
2017-10-26T04:07:43.483Z,12.60
2017-10-26T04:09:46.268Z,12.60
2017-10-26T04:11:48.966Z,12.60
2017-10-26T04:13:51.723Z,12.60
2017-10-26T04:15:54.396Z,12.60
2017-10-26T04:17:57.185Z,12.60
2017-10-26T04:19:59.891Z,12.60
2017-10-26T04:22:02.572Z,12.60
2017-10-26T04:24:05.245Z,12.70
2017-10-26T04:26:07.910Z,12.70
2017-10-26T04:28:10.641Z,12.70
2017-10-26T04:30:13.333Z,12.70
2017-10-26T04:32:16.073Z,12.70
2017-10-26T04:34:18.911Z,12.70
2017-10-26T04:36:21.592Z,12.70
2017-10-26T04:38:24.290Z,12.80
2017-10-26T04:40:26.976Z,12.80
2017-10-26T04:42:29.667Z,12.80
2017-10-26T04:44:33.099Z,12.80
2017-10-26T04:46:35.792Z,12.80
2017-10-26T04:48:38.480Z,12.80
2017-10-26T04:50:41.134Z,12.80
2017-10-26T04:52:43.997Z,12.80
2017-10-26T04:54:46.774Z,12.80
2017-10-26T04:56:49.430Z,12.80
2017-10-26T04:58:52.159Z,12.70
2017-10-26T05:00:54.827Z,12.70
2017-10-26T05:02:57.516Z,12.70
2017-10-26T05:05:00.176Z,12.70
2017-10-26T05:07:02.849Z,12.70
2017-10-26T05:09:05.552Z,12.70
2017-10-26T05:11:08.224Z,12.70
2017-10-26T05:13:10.914Z,12.70
2017-10-26T05:15:13.598Z,12.70
2017-10-26T05:17:17.058Z,12.70
2017-10-26T05:19:19.762Z,12.70
2017-10-26T05:21:23.352Z,12.70
2017-10-26T05:23:26.082Z,12.70
2017-10-26T05:25:28.739Z,12.70
2017-10-26T05:27:31.435Z,12.70
2017-10-26T05:29:34.102Z,12.80
2017-10-26T05:31:36.784Z,12.80
2017-10-26T05:33:40.512Z,12.80
2017-10-26T05:35:43.213Z,12.80
2017-10-26T05:37:45.935Z,12.80
2017-10-26T05:39:48.667Z,12.80
2017-10-26T05:41:51.335Z,12.80
2017-10-26T05:43:54.070Z,12.80
2017-10-26T05:45:56.736Z,12.80
2017-10-26T05:48:00.183Z,12.80
2017-10-26T05:50:02.968Z,12.80
2017-10-26T05:52:05.616Z,12.80
2017-10-26T05:54:08.315Z,12.80
2017-10-26T05:56:11.019Z,12.80
2017-10-26T05:58:14.441Z,12.80
2017-10-26T06:00:17.105Z,12.80
2017-10-26T06:02:19.798Z,12.80
2017-10-26T06:04:22.447Z,12.80
2017-10-26T06:06:25.857Z,12.90
2017-10-26T06:08:28.548Z,12.90
2017-10-26T06:10:31.546Z,12.90
2017-10-26T06:12:34.224Z,12.90
2017-10-26T06:14:36.909Z,12.90
2017-10-26T06:16:39.585Z,12.90
2017-10-26T06:18:46.018Z,12.90
2017-10-26T06:20:48.717Z,12.90
2017-10-26T06:22:51.373Z,12.90
2017-10-26T06:24:54.146Z,12.90
2017-10-26T06:26:56.983Z,12.90
2017-10-26T06:28:59.809Z,12.90
2017-10-26T06:31:02.459Z,12.90
2017-10-26T06:33:06.182Z,12.80
2017-10-26T06:35:08.844Z,12.80
2017-10-26T06:37:11.554Z,12.80
2017-10-26T06:39:14.239Z,12.90
2017-10-26T06:41:16.906Z,12.90
2017-10-26T06:43:19.579Z,13.00
2017-10-26T06:45:24.945Z,13.00
2017-10-26T06:47:27.664Z,13.00
2017-10-26T06:49:31.090Z,13.00
2017-10-26T06:51:33.753Z,13.00
2017-10-26T06:53:36.484Z,13.00
2017-10-26T06:55:39.150Z,13.00
2017-10-26T06:57:42.042Z,13.00
2017-10-26T06:59:45.493Z,12.90
2017-10-26T07:01:48.177Z,12.90
2017-10-26T07:03:50.839Z,12.90
2017-10-26T07:05:53.620Z,12.90
2017-10-26T07:07:56.284Z,12.90
2017-10-26T07:09:58.965Z,13.00
2017-10-26T07:12:01.653Z,13.00
2017-10-26T07:14:04.314Z,13.00
2017-10-26T07:16:06.984Z,13.00
2017-10-26T07:18:09.648Z,13.10
2017-10-26T07:20:12.305Z,13.20
2017-10-26T07:22:15.738Z,13.30
2017-10-26T07:24:18.396Z,13.30
2017-10-26T07:26:21.090Z,13.30
2017-10-26T07:28:23.785Z,13.40
2017-10-26T07:30:26.454Z,13.50
2017-10-26T07:32:29.140Z,13.50
2017-10-26T07:34:31.933Z,13.60
2017-10-26T07:36:34.934Z,13.60
2017-10-26T07:38:38.393Z,13.80
2017-10-26T07:40:41.305Z,13.70
2017-10-26T07:42:44.051Z,13.80
2017-10-26T07:44:46.782Z,13.90
2017-10-26T07:46:50.484Z,14.10
2017-10-26T07:48:54.072Z,14.20
2017-10-26T07:50:57.526Z,14.40
2017-10-26T07:53:00.185Z,14.40
2017-10-26T07:55:02.956Z,14.50
2017-10-26T07:57:05.650Z,14.60
2017-10-26T07:59:08.897Z,14.60
2017-10-26T08:01:12.629Z,15.00
2017-10-26T08:03:15.413Z,15.00
2017-10-26T08:05:18.175Z,15.00
2017-10-26T08:07:20.897Z,14.80
2017-10-26T08:09:23.612Z,14.80
2017-10-26T08:11:27.219Z,14.80
2017-10-26T08:13:29.970Z,14.80
2017-10-26T08:15:32.724Z,14.70
2017-10-26T08:17:35.456Z,14.70
2017-10-26T08:19:38.127Z,14.70
2017-10-26T08:21:41.015Z,14.80
2017-10-26T08:23:43.677Z,14.70
2017-10-26T08:25:47.100Z,15.30
2017-10-26T08:27:49.795Z,15.30
2017-10-26T08:29:52.488Z,16.60
2017-10-26T08:31:55.194Z,17.10
2017-10-26T08:33:58.625Z,16.90
2017-10-26T08:36:01.314Z,16.80
2017-10-26T08:38:03.982Z,17.10
2017-10-26T08:40:06.656Z,17.20
2017-10-26T08:42:09.366Z,16.90
2017-10-26T08:44:13.518Z,16.60
2017-10-26T08:46:16.233Z,16.60
2017-10-26T08:48:18.886Z,16.70
2017-10-26T08:50:21.587Z,16.90
2017-10-26T08:52:24.337Z,17.20
2017-10-26T08:54:27.018Z,16.90
2017-10-26T08:56:29.719Z,16.80
2017-10-26T08:58:32.447Z,17.20
2017-10-26T09:00:35.893Z,19.50
2017-10-26T09:02:38.591Z,19.50
2017-10-26T09:04:42.069Z,20.10
2017-10-26T09:06:44.785Z,20.00
2017-10-26T09:08:48.253Z,21.30
2017-10-26T09:10:50.960Z,21.20
2017-10-26T09:12:54.431Z,19.40
2017-10-26T09:14:57.129Z,19.40
2017-10-26T09:17:00.644Z,17.70
2017-10-26T09:19:03.383Z,17.60
2017-10-26T09:21:06.086Z,16.70
2017-10-26T09:23:09.607Z,15.90
2017-10-26T09:25:12.380Z,15.90
2017-10-26T09:27:15.161Z,16.10
2017-10-26T09:29:17.883Z,15.90
2017-10-26T09:31:20.572Z,15.90
2017-10-26T09:33:28.889Z,15.90
2017-10-26T09:35:32.397Z,16.20
2017-10-26T09:37:35.879Z,16.20
2017-10-26T09:39:39.372Z,16.10
2017-10-26T09:41:42.870Z,16.10
2017-10-26T09:43:46.453Z,16.30
2017-10-26T09:45:49.157Z,16.30
2017-10-26T09:47:52.648Z,17.20
2017-10-26T09:49:56.103Z,17.40
2017-10-26T09:51:58.813Z,17.40
2017-10-26T09:54:02.298Z,18.00
2017-10-26T09:56:05.205Z,17.90
2017-10-26T09:58:07.913Z,18.30
2017-10-26T10:00:10.676Z,18.50
2017-10-26T10:02:13.394Z,18.50
2017-10-26T10:04:16.105Z,18.50
2017-10-26T10:06:19.619Z,19.00
2017-10-26T10:08:22.361Z,19.00
2017-10-26T10:10:25.084Z,19.30
2017-10-26T10:12:28.010Z,19.40
2017-10-26T10:14:30.718Z,19.20
2017-10-26T10:16:34.282Z,18.70
2017-10-26T10:18:37.192Z,18.60
2017-10-26T10:20:40.689Z,19.30
2017-10-26T10:22:44.176Z,19.20
2017-10-26T10:24:47.659Z,19.90
2017-10-26T10:26:50.477Z,19.80
2017-10-26T10:28:53.304Z,19.80
2017-10-26T10:30:56.044Z,19.70
2017-10-26T10:32:58.773Z,18.90
2017-10-26T10:35:01.486Z,18.60
2017-10-26T10:37:04.375Z,18.30
2017-10-26T10:39:07.057Z,18.40
2017-10-26T10:41:09.746Z,17.90
2017-10-26T10:43:12.548Z,17.80
2017-10-26T10:45:15.258Z,17.80
2017-10-26T10:47:18.755Z,17.70
2017-10-26T10:49:22.232Z,17.60
2017-10-26T10:51:25.124Z,17.60
2017-10-26T10:53:28.588Z,17.40
2017-10-26T10:55:31.329Z,17.40
2017-10-26T10:57:34.013Z,17.70
2017-10-26T10:59:42.625Z,17.90
2017-10-26T11:01:45.354Z,17.90
2017-10-26T11:03:48.101Z,18.10
2017-10-26T11:05:50.905Z,18.50
2017-10-26T11:07:53.634Z,18.90
2017-10-26T11:09:56.412Z,18.80
2017-10-26T11:11:59.195Z,18.40
2017-10-26T11:14:01.895Z,18.40
2017-10-26T11:16:04.620Z,18.70
2017-10-26T11:18:08.087Z,18.00
2017-10-26T11:20:10.791Z,18.00
2017-10-26T11:22:14.274Z,17.80
2017-10-26T11:24:17.784Z,17.70
2017-10-26T11:26:21.508Z,17.60
2017-10-26T11:28:24.251Z,17.60
2017-10-26T11:30:27.756Z,17.50
2017-10-26T11:32:31.368Z,17.40
2017-10-26T11:34:34.117Z,17.40
2017-10-26T11:36:36.973Z,17.70
2017-10-26T11:38:39.720Z,18.20
2017-10-26T11:40:42.421Z,18.40
2017-10-26T11:42:45.353Z,18.60
2017-10-26T11:44:48.859Z,18.40
2017-10-26T11:46:51.549Z,18.40
2017-10-26T11:48:54.327Z,18.40
2017-10-26T11:50:57.088Z,18.30
2017-10-26T11:52:59.812Z,18.00
2017-10-26T11:55:02.514Z,17.90
2017-10-26T11:57:06.765Z,18.20
2017-10-26T11:59:09.477Z,18.10
2017-10-26T12:01:12.181Z,18.50
2017-10-26T12:03:15.547Z,18.80
2017-10-26T12:05:18.285Z,19.30
2017-10-26T12:07:21.001Z,19.70
2017-10-26T12:09:23.904Z,19.50
2017-10-26T12:11:26.608Z,19.40
2017-10-26T12:13:30.490Z,18.50
2017-10-26T12:15:33.231Z,18.50
2017-10-26T12:17:35.984Z,18.30
2017-10-26T12:19:38.728Z,18.10
2017-10-26T12:21:43.051Z,18.50
2017-10-26T12:23:45.758Z,18.50
2017-10-26T12:25:49.578Z,18.40
2017-10-26T12:27:52.575Z,18.40
2017-10-26T12:29:55.384Z,18.30
2017-10-26T12:31:58.154Z,18.20
2017-10-26T12:34:01.113Z,18.50
2017-10-26T12:36:03.814Z,18.90
2017-10-26T12:38:06.826Z,18.90
2017-10-26T12:40:10.449Z,19.40
2017-10-26T12:42:13.137Z,19.40
2017-10-26T12:44:15.958Z,19.20
2017-10-26T12:46:18.715Z,19.10
2017-10-26T12:48:21.501Z,19.40
2017-10-26T12:50:24.214Z,19.50
2017-10-26T12:52:27.029Z,19.10
2017-10-26T12:54:29.773Z,18.60
2017-10-26T12:56:33.260Z,18.90
2017-10-26T12:58:36.083Z,18.90
2017-10-26T13:00:38.860Z,18.80
2017-10-26T13:02:41.568Z,19.10
2017-10-26T13:04:44.359Z,19.00
2017-10-26T13:06:47.091Z,18.50
2017-10-26T13:08:49.791Z,18.40
2017-10-26T13:10:52.519Z,18.50
2017-10-26T13:12:55.972Z,18.30
2017-10-26T13:14:58.687Z,18.20
2017-10-26T13:17:02.199Z,18.60
2017-10-26T13:19:04.931Z,18.60
2017-10-26T13:21:08.415Z,18.60
2017-10-26T13:23:11.111Z,18.50
2017-10-26T13:25:13.802Z,18.30
2017-10-26T13:27:17.323Z,18.30
2017-10-26T13:29:20.569Z,18.20
2017-10-26T13:31:23.237Z,18.20
2017-10-26T13:33:25.928Z,18.30
2017-10-26T13:35:28.645Z,18.40
2017-10-26T13:37:31.437Z,18.40
2017-10-26T13:39:34.093Z,18.30
2017-10-26T13:41:36.887Z,18.30
2017-10-26T13:43:40.064Z,17.90
2017-10-26T13:45:42.782Z,17.60
2017-10-26T13:47:45.443Z,17.30
2017-10-26T13:49:48.214Z,17.20
2017-10-26T13:51:50.911Z,17.20
2017-10-26T13:53:53.627Z,17.20
2017-10-26T13:55:57.057Z,17.20
2017-10-26T13:57:59.745Z,17.20
2017-10-26T14:00:02.447Z,17.20
2017-10-26T14:02:05.191Z,17.30
2017-10-26T14:04:07.902Z,17.30
2017-10-26T14:06:10.567Z,17.30
2017-10-26T14:08:13.245Z,17.20
2017-10-26T14:10:18.016Z,17.00
2017-10-26T14:12:21.503Z,16.90
2017-10-26T14:14:24.971Z,16.80
2017-10-26T14:16:27.707Z,16.80
2017-10-26T14:18:30.387Z,16.80
2017-10-26T14:20:33.068Z,16.80
2017-10-26T14:22:35.741Z,16.90
2017-10-26T14:24:38.399Z,16.80
2017-10-26T14:26:41.090Z,16.70
2017-10-26T14:28:43.769Z,16.70
2017-10-26T14:30:46.448Z,16.70
2017-10-26T14:32:49.150Z,16.80
2017-10-26T14:34:52.012Z,16.70
2017-10-26T14:36:54.678Z,16.60
2017-10-26T14:38:57.389Z,16.70
2017-10-26T14:41:00.447Z,16.50
2017-10-26T14:43:03.150Z,16.60
2017-10-26T14:45:05.823Z,16.60
2017-10-26T14:47:08.502Z,16.70
2017-10-26T14:49:11.198Z,16.60
2017-10-26T14:51:13.867Z,16.50
2017-10-26T14:53:16.532Z,16.50
2017-10-26T14:55:19.961Z,16.40
2017-10-26T14:57:23.435Z,16.30
2017-10-26T14:59:27.004Z,16.30
2017-10-26T15:01:29.658Z,16.30
2017-10-26T15:03:32.349Z,16.10
2017-10-26T15:05:34.992Z,16.00
2017-10-26T15:07:37.668Z,16.00
2017-10-26T15:09:40.491Z,15.80
2017-10-26T15:11:43.152Z,15.70
2017-10-26T15:13:45.832Z,15.70
2017-10-26T15:15:48.530Z,15.60
2017-10-26T15:17:51.221Z,15.50
2017-10-26T15:19:55.412Z,15.40
2017-10-26T15:21:58.077Z,15.40
2017-10-26T15:24:00.761Z,15.40
2017-10-26T15:26:03.445Z,15.30
2017-10-26T15:28:06.130Z,15.30
2017-10-26T15:30:08.801Z,15.20
2017-10-26T15:32:11.471Z,15.20
2017-10-26T15:34:14.625Z,15.10
2017-10-26T15:36:17.296Z,15.10
2017-10-26T15:38:19.970Z,15.10
2017-10-26T15:40:23.164Z,15.10
2017-10-26T15:42:28.130Z,15.10
2017-10-26T15:44:31.739Z,15.10
2017-10-26T15:46:34.378Z,15.10
2017-10-26T15:48:37.220Z,15.10
2017-10-26T15:50:41.257Z,15.10
2017-10-26T15:52:43.947Z,15.10
2017-10-26T15:54:46.736Z,15.00
2017-10-26T15:56:49.614Z,14.90
2017-10-26T15:58:52.305Z,15.00
2017-10-26T16:00:55.111Z,15.00
2017-10-26T16:02:58.571Z,15.00
2017-10-26T16:05:01.213Z,15.00
2017-10-26T16:07:03.878Z,15.00
2017-10-26T16:09:06.571Z,15.00
2017-10-26T16:11:09.254Z,15.00
2017-10-26T16:13:11.960Z,15.00
2017-10-26T16:15:14.652Z,14.90
2017-10-26T16:17:17.314Z,14.90
2017-10-26T16:19:20.228Z,14.90
2017-10-26T16:21:22.968Z,14.90
2017-10-26T16:23:26.774Z,14.90
2017-10-26T16:25:29.430Z,14.90
2017-10-26T16:27:32.102Z,14.90
2017-10-26T16:29:34.784Z,14.90
2017-10-26T16:31:37.441Z,14.90
2017-10-26T16:33:40.123Z,14.90
2017-10-26T16:35:42.914Z,14.90
2017-10-26T16:37:45.588Z,14.90
2017-10-26T16:39:48.270Z,14.90
2017-10-26T16:41:51.116Z,14.90
2017-10-26T16:43:53.804Z,14.90
2017-10-26T16:45:56.981Z,14.90
2017-10-26T16:48:00.037Z,14.90
2017-10-26T16:50:02.772Z,14.90
2017-10-26T16:52:05.430Z,14.90
2017-10-26T16:54:08.147Z,14.90
2017-10-26T16:56:10.821Z,14.80
2017-10-26T16:58:13.573Z,14.80
2017-10-26T17:00:16.314Z,14.80
2017-10-26T17:02:19.841Z,14.70
2017-10-26T17:04:22.641Z,14.70
2017-10-26T17:06:25.313Z,14.70
2017-10-26T17:08:27.997Z,14.70
2017-10-26T17:10:30.951Z,14.60
2017-10-26T17:12:33.617Z,14.60
2017-10-26T17:14:36.515Z,14.60
2017-10-26T17:16:39.208Z,14.50
2017-10-26T17:18:41.893Z,14.50
2017-10-26T17:20:44.567Z,14.40
2017-10-26T17:22:47.214Z,14.40
2017-10-26T17:24:49.892Z,14.30
2017-10-26T17:26:52.564Z,14.20
2017-10-26T17:28:55.292Z,14.20
2017-10-26T17:30:58.021Z,14.20
2017-10-26T17:33:00.678Z,14.10
2017-10-26T17:35:04.203Z,14.20
2017-10-26T17:37:06.853Z,14.20
2017-10-26T17:39:10.282Z,14.20
2017-10-26T17:41:12.959Z,14.20
2017-10-26T17:43:15.640Z,14.30
2017-10-26T17:45:18.285Z,14.30
2017-10-26T17:47:21.074Z,14.30
2017-10-26T17:49:23.794Z,14.30
2017-10-26T17:51:26.446Z,14.30
2017-10-26T17:53:29.121Z,14.30
2017-10-26T17:55:31.810Z,14.30
2017-10-26T17:57:34.551Z,14.30
2017-10-26T17:59:37.438Z,14.30
2017-10-26T18:01:40.124Z,14.30
2017-10-26T18:03:42.789Z,14.30
2017-10-26T18:05:45.777Z,14.30
2017-10-26T18:07:48.673Z,14.30
2017-10-26T18:09:51.638Z,14.30
2017-10-26T18:11:54.328Z,14.30
2017-10-26T18:13:57.151Z,14.30
2017-10-26T18:16:00.695Z,14.40
2017-10-26T18:18:03.533Z,14.30
2017-10-26T18:20:07.175Z,14.30
2017-10-26T18:22:10.048Z,14.30
2017-10-26T18:24:12.732Z,14.30
2017-10-26T18:26:15.431Z,14.30
2017-10-26T18:28:18.174Z,14.30
2017-10-26T18:30:20.856Z,14.30
2017-10-26T18:32:23.768Z,14.30
2017-10-26T18:34:26.451Z,14.30
2017-10-26T18:36:29.174Z,14.30
2017-10-26T18:38:32.709Z,14.30
2017-10-26T18:40:35.761Z,14.20
2017-10-26T18:42:43.198Z,14.30
2017-10-26T18:44:47.751Z,14.20
2017-10-26T18:47:10.012Z,14.20
2017-10-26T18:49:13.651Z,14.20
2017-10-26T18:51:16.344Z,14.10
2017-10-26T18:53:19.268Z,14.10
2017-10-26T18:55:24.222Z,14.10
2017-10-26T18:57:27.032Z,14.10
2017-10-26T18:59:31.029Z,14.00
2017-10-26T19:01:35.000Z,14.00
2017-10-26T19:03:39.889Z,13.90
2017-10-26T19:05:42.939Z,13.90
2017-10-26T19:07:48.474Z,13.90
2017-10-26T19:09:51.614Z,13.90
2017-10-26T19:11:55.611Z,13.90
2017-10-26T19:13:59.151Z,13.80
2017-10-26T19:16:02.862Z,13.80
2017-10-26T19:18:05.646Z,13.90
2017-10-26T19:20:08.986Z,13.90
2017-10-26T19:22:13.304Z,13.80
2017-10-26T19:24:16.896Z,13.80
2017-10-26T19:26:22.914Z,13.80
2017-10-26T19:28:25.758Z,13.80
2017-10-26T19:30:28.492Z,13.90
2017-10-26T19:32:31.160Z,13.90
2017-10-26T19:34:34.987Z,13.90
2017-10-26T19:36:39.416Z,14.00
2017-10-26T19:38:42.285Z,14.00
2017-10-26T19:40:45.799Z,14.00
2017-10-26T19:42:51.325Z,14.00
2017-10-26T19:44:55.220Z,14.00
2017-10-26T19:46:57.892Z,13.90
2017-10-26T19:49:00.545Z,13.90
2017-10-26T19:51:03.319Z,14.00
2017-10-26T19:53:06.202Z,13.90
2017-10-26T19:55:09.074Z,14.00
2017-10-26T19:57:11.760Z,14.00
2017-10-26T19:59:14.551Z,13.90
2017-10-26T20:01:17.237Z,13.90
2017-10-26T20:03:21.007Z,13.90
2017-10-26T20:05:23.884Z,13.80
2017-10-26T20:07:26.556Z,13.80
2017-10-26T20:09:29.393Z,13.70
2017-10-26T20:11:32.081Z,13.60
2017-10-26T20:13:35.605Z,13.50
2017-10-26T20:15:38.503Z,13.50
2017-10-26T20:17:41.160Z,13.50
2017-10-26T20:19:43.836Z,13.50
2017-10-26T20:21:46.493Z,13.50
2017-10-26T20:23:50.036Z,13.40
2017-10-26T20:25:52.768Z,13.40
2017-10-26T20:27:56.213Z,13.40
2017-10-26T20:29:58.860Z,13.40
2017-10-26T20:32:01.535Z,13.40
2017-10-26T20:34:04.321Z,13.40
2017-10-26T20:36:07.003Z,13.40
2017-10-26T20:38:09.987Z,13.30
2017-10-26T20:40:12.633Z,13.30
2017-10-26T20:42:16.047Z,13.20
2017-10-26T20:44:18.727Z,13.20
2017-10-26T20:46:21.411Z,13.20
2017-10-26T20:48:26.895Z,13.10
2017-10-26T20:50:35.349Z,13.10
2017-10-26T20:52:43.809Z,13.10
2017-10-26T20:54:52.104Z,13.10
2017-10-26T20:57:00.360Z,13.10
2017-10-26T20:59:09.549Z,13.10
2017-10-26T21:01:17.929Z,13.00
2017-10-26T21:03:26.436Z,13.00
2017-10-26T21:05:34.884Z,13.10
2017-10-26T21:07:43.762Z,13.00
2017-10-26T21:09:46.451Z,13.00
2017-10-26T21:11:54.788Z,13.00
2017-10-26T21:14:03.105Z,13.00
2017-10-26T21:16:05.770Z,13.00
2017-10-26T21:18:08.438Z,12.90
2017-10-26T21:20:11.236Z,12.90
2017-10-26T21:22:13.924Z,12.90
2017-10-26T21:24:16.575Z,12.90
2017-10-26T21:26:19.224Z,12.90
2017-10-26T21:28:21.900Z,12.90
2017-10-26T21:30:24.553Z,12.90
2017-10-26T21:32:27.230Z,12.90
2017-10-26T21:34:29.902Z,12.90
2017-10-26T21:36:33.340Z,12.90
2017-10-26T21:38:36.022Z,12.90
2017-10-26T21:40:38.705Z,12.80
2017-10-26T21:42:41.447Z,12.80
2017-10-26T21:44:44.152Z,12.80
2017-10-26T21:46:46.899Z,12.80
2017-10-26T21:48:49.579Z,12.80
2017-10-26T21:50:52.222Z,12.80
2017-10-26T21:52:55.891Z,12.70
2017-10-26T21:54:58.583Z,12.70
2017-10-26T21:57:01.251Z,12.70
2017-10-26T21:59:03.963Z,12.70
2017-10-26T22:01:07.381Z,12.70
2017-10-26T22:03:10.162Z,12.70
2017-10-26T22:05:12.829Z,12.70
2017-10-26T22:07:15.618Z,12.70
2017-10-26T22:09:18.435Z,12.70
2017-10-26T22:11:21.100Z,12.70
2017-10-26T22:13:23.742Z,12.70
2017-10-26T22:15:26.406Z,12.70
2017-10-26T22:17:29.063Z,12.70
2017-10-26T22:19:32.520Z,12.80
2017-10-26T22:21:35.161Z,12.70
2017-10-26T22:23:37.868Z,12.80
2017-10-26T22:25:40.516Z,12.80
2017-10-26T22:27:43.174Z,12.80
2017-10-26T22:29:46.622Z,12.70
2017-10-26T22:31:49.287Z,12.70
2017-10-26T22:33:51.944Z,12.70
2017-10-26T22:35:54.639Z,12.70
2017-10-26T22:37:57.287Z,12.80
2017-10-26T22:40:00.077Z,12.70
2017-10-26T22:42:02.731Z,12.70
2017-10-26T22:44:05.431Z,12.80
2017-10-26T22:46:08.104Z,12.70
2017-10-26T22:48:10.764Z,12.70
2017-10-26T22:50:13.446Z,12.70
2017-10-26T22:52:16.088Z,12.70
2017-10-26T22:54:19.523Z,12.70
2017-10-26T22:56:22.197Z,12.70
2017-10-26T22:58:24.974Z,12.70
2017-10-26T23:00:27.641Z,12.70
2017-10-26T23:02:30.343Z,12.70
2017-10-26T23:04:32.990Z,12.70
2017-10-26T23:06:35.665Z,12.60
2017-10-26T23:08:38.354Z,12.70
2017-10-26T23:10:41.118Z,12.70
2017-10-26T23:12:43.774Z,12.60
2017-10-26T23:14:47.240Z,12.60
2017-10-26T23:16:49.903Z,12.60
2017-10-26T23:18:52.557Z,12.60
2017-10-26T23:20:55.296Z,12.60
2017-10-26T23:22:58.728Z,12.60
2017-10-26T23:25:01.391Z,12.60
2017-10-26T23:27:04.066Z,12.60
2017-10-26T23:29:06.725Z,12.60
2017-10-26T23:31:10.173Z,12.60
2017-10-26T23:33:12.958Z,12.50
2017-10-26T23:35:15.618Z,12.60
2017-10-26T23:37:18.264Z,12.60
2017-10-26T23:39:20.936Z,12.50
2017-10-26T23:41:23.591Z,12.50
2017-10-26T23:43:27.070Z,12.60
2017-10-26T23:45:29.758Z,12.50
2017-10-26T23:47:33.307Z,12.50
2017-10-26T23:49:36.074Z,12.50
2017-10-26T23:51:38.753Z,12.50
2017-10-26T23:53:41.420Z,12.50
2017-10-26T23:55:44.210Z,12.50
2017-10-26T23:57:46.992Z,12.50
2017-10-26T23:59:49.681Z,12.50
